sensor_id;sensor_type;location;lat;lon;timestamp;pressure;altitude;pressure_sealevel;temperature;humidity
48790;BME280;41718;51.980;5.734;2023-05-08T00:02:28;101722.44;;;12.73;100.00
48790;BME280;41718;51.980;5.734;2023-05-08T00:07:30;101727.53;;;12.67;100.00
48790;BME280;41718;51.980;5.734;2023-05-08T00:12:32;101722.31;;;12.65;100.00
48790;BME280;41718;51.980;5.734;2023-05-08T00:17:33;101722.19;;;12.59;100.00
48790;BME280;41718;51.980;5.734;2023-05-08T00:22:35;101720.34;;;12.54;100.00
48790;BME280;41718;51.980;5.734;2023-05-08T00:27:36;101693.13;;;12.36;100.00
48790;BME280;41718;51.980;5.734;2023-05-08T00:32:38;101682.72;;;12.35;100.00
48790;BME280;41718;51.980;5.734;2023-05-08T00:37:39;101672.22;;;12.29;100.00
48790;BME280;41718;51.980;5.734;2023-05-08T00:42:41;101662.59;;;12.25;100.00
48790;BME280;41718;51.980;5.734;2023-05-08T00:47:43;101653.72;;;12.13;100.00
48790;BME280;41718;51.980;5.734;2023-05-08T00:52:45;101646.91;;;12.18;100.00
48790;BME280;41718;51.980;5.734;2023-05-08T00:57:46;101629.56;;;12.14;100.00
48790;BME280;41718;51.980;5.734;2023-05-08T01:02:49;101632.47;;;11.90;100.00
48790;BME280;41718;51.980;5.734;2023-05-08T01:07:50;101630.56;;;11.82;100.00
48790;BME280;41718;51.980;5.734;2023-05-08T01:13:08;101609.81;;;11.82;100.00
48790;BME280;41718;51.980;5.734;2023-05-08T01:18:34;101596.63;;;11.73;100.00
48790;BME280;41718;51.980;5.734;2023-05-08T01:24:18;101579.09;;;11.62;100.00
48790;BME280;41718;51.980;5.734;2023-05-08T01:34:39;101586.41;;;11.41;100.00
48790;BME280;41718;51.980;5.734;2023-05-08T01:45:09;101581.88;;;11.32;100.00
48790;BME280;41718;51.980;5.734;2023-05-08T01:50:18;101578.34;;;11.29;100.00
48790;BME280;41718;51.980;5.734;2023-05-08T01:55:34;101586.06;;;11.27;100.00
48790;BME280;41718;51.980;5.734;2023-05-08T02:00:38;101587.78;;;11.27;100.00
48790;BME280;41718;51.980;5.734;2023-05-08T02:05:41;101598.69;;;11.13;100.00
48790;BME280;41718;51.980;5.734;2023-05-08T02:10:44;101598.47;;;11.04;100.00
48790;BME280;41718;51.980;5.734;2023-05-08T02:15:49;101600.94;;;11.00;100.00
48790;BME280;41718;51.980;5.734;2023-05-08T02:20:53;101597.53;;;11.01;100.00
48790;BME280;41718;51.980;5.734;2023-05-08T02:25:57;101589.53;;;10.93;100.00
48790;BME280;41718;51.980;5.734;2023-05-08T02:31:00;101597.13;;;10.85;100.00
48790;BME280;41718;51.980;5.734;2023-05-08T02:36:02;101602.06;;;10.76;100.00
48790;BME280;41718;51.980;5.734;2023-05-08T02:41:04;101589.97;;;10.77;100.00
48790;BME280;41718;51.980;5.734;2023-05-08T02:46:13;101592.28;;;10.66;100.00
48790;BME280;41718;51.980;5.734;2023-05-08T02:51:34;101581.94;;;10.66;100.00
48790;BME280;41718;51.980;5.734;2023-05-08T02:56:44;101574.88;;;10.60;100.00
48790;BME280;41718;51.980;5.734;2023-05-08T03:01:58;101576.66;;;10.61;100.00
48790;BME280;41718;51.980;5.734;2023-05-08T03:07:05;101568.84;;;10.60;100.00
48790;BME280;41718;51.980;5.734;2023-05-08T03:12:11;101564.59;;;10.62;100.00
48790;BME280;41718;51.980;5.734;2023-05-08T03:17:15;101567.34;;;10.68;100.00
48790;BME280;41718;51.980;5.734;2023-05-08T03:22:19;101567.78;;;10.52;100.00
48790;BME280;41718;51.980;5.734;2023-05-08T03:27:22;101572.94;;;10.52;100.00
48790;BME280;41718;51.980;5.734;2023-05-08T03:32:25;101572.22;;;10.56;100.00
48790;BME280;41718;51.980;5.734;2023-05-08T03:37:28;101568.09;;;10.64;100.00
48790;BME280;41718;51.980;5.734;2023-05-08T03:42:30;101570.53;;;10.58;100.00
48790;BME280;41718;51.980;5.734;2023-05-08T03:47:34;101569.94;;;10.68;100.00
48790;BME280;41718;51.980;5.734;2023-05-08T03:52:37;101557.06;;;10.71;100.00
48790;BME280;41718;51.980;5.734;2023-05-08T03:57:44;101546.81;;;10.76;100.00
48790;BME280;41718;51.980;5.734;2023-05-08T04:03:07;101552.16;;;10.82;100.00
48790;BME280;41718;51.980;5.734;2023-05-08T04:08:18;101564.63;;;10.64;100.00
48790;BME280;41718;51.980;5.734;2023-05-08T04:13:30;101565.69;;;10.72;100.00
48790;BME280;41718;51.980;5.734;2023-05-08T04:18:35;101563.91;;;10.69;100.00
48790;BME280;41718;51.980;5.734;2023-05-08T04:23:40;101552.03;;;10.77;100.00
48790;BME280;41718;51.980;5.734;2023-05-08T04:28:42;101559.72;;;10.73;100.00
48790;BME280;41718;51.980;5.734;2023-05-08T04:33:44;101561.44;;;10.74;100.00
48790;BME280;41718;51.980;5.734;2023-05-08T04:38:46;101565.66;;;10.70;100.00
48790;BME280;41718;51.980;5.734;2023-05-08T04:43:48;101563.72;;;10.61;100.00
48790;BME280;41718;51.980;5.734;2023-05-08T04:48:49;101568.91;;;10.61;100.00
48790;BME280;41718;51.980;5.734;2023-05-08T04:53:51;101568.41;;;10.76;100.00
48790;BME280;41718;51.980;5.734;2023-05-08T04:58:53;101573.72;;;10.81;100.00
48790;BME280;41718;51.980;5.734;2023-05-08T05:03:54;101572.13;;;10.87;100.00
48790;BME280;41718;51.980;5.734;2023-05-08T05:08:56;101578.47;;;10.99;100.00
48790;BME280;41718;51.980;5.734;2023-05-08T05:13:58;101578.81;;;11.12;100.00
48790;BME280;41718;51.980;5.734;2023-05-08T05:18:59;101585.22;;;11.28;100.00
48790;BME280;41718;51.980;5.734;2023-05-08T05:24:01;101595.00;;;11.40;100.00
48790;BME280;41718;51.980;5.734;2023-05-08T05:29:03;101600.75;;;11.63;100.00
48790;BME280;41718;51.980;5.734;2023-05-08T05:34:04;101604.59;;;11.80;100.00
48790;BME280;41718;51.980;5.734;2023-05-08T05:39:06;101610.19;;;11.99;100.00
48790;BME280;41718;51.980;5.734;2023-05-08T05:44:07;101613.28;;;12.22;100.00
48790;BME280;41718;51.980;5.734;2023-05-08T05:49:09;101617.94;;;12.39;100.00
48790;BME280;41718;51.980;5.734;2023-05-08T05:54:12;101622.63;;;12.59;100.00
48790;BME280;41718;51.980;5.734;2023-05-08T05:59:14;101626.34;;;13.20;100.00
48790;BME280;41718;51.980;5.734;2023-05-08T06:04:16;101631.25;;;13.53;100.00
48790;BME280;41718;51.980;5.734;2023-05-08T06:09:17;101636.22;;;13.98;100.00
48790;BME280;41718;51.980;5.734;2023-05-08T06:14:19;101630.06;;;13.90;100.00
48790;BME280;41718;51.980;5.734;2023-05-08T06:19:20;101639.84;;;14.08;100.00
48790;BME280;41718;51.980;5.734;2023-05-08T06:24:24;101648.00;;;14.37;100.00
48790;BME280;41718;51.980;5.734;2023-05-08T06:29:25;101651.06;;;14.05;100.00
48790;BME280;41718;51.980;5.734;2023-05-08T06:34:27;101664.34;;;14.24;100.00
48790;BME280;41718;51.980;5.734;2023-05-08T06:39:28;101665.59;;;14.53;100.00
48790;BME280;41718;51.980;5.734;2023-05-08T06:44:30;101668.47;;;14.75;100.00
48790;BME280;41718;51.980;5.734;2023-05-08T06:49:31;101674.56;;;14.78;100.00
48790;BME280;41718;51.980;5.734;2023-05-08T06:54:33;101688.81;;;15.11;100.00
48790;BME280;41718;51.980;5.734;2023-05-08T06:59:34;101694.00;;;15.09;100.00
48790;BME280;41718;51.980;5.734;2023-05-08T07:04:37;101713.13;;;15.11;100.00
48790;BME280;41718;51.980;5.734;2023-05-08T07:09:39;101715.84;;;15.24;100.00
48790;BME280;41718;51.980;5.734;2023-05-08T07:14:41;101726.91;;;14.98;100.00
48790;BME280;41718;51.980;5.734;2023-05-08T07:19:43;101730.25;;;14.88;100.00
48790;BME280;41718;51.980;5.734;2023-05-08T07:24:45;101736.53;;;15.04;100.00
48790;BME280;41718;51.980;5.734;2023-05-08T07:29:47;101746.22;;;15.17;100.00
48790;BME280;41718;51.980;5.734;2023-05-08T07:34:48;101758.38;;;15.15;100.00
48790;BME280;41718;51.980;5.734;2023-05-08T07:39:50;101760.72;;;14.95;100.00
48790;BME280;41718;51.980;5.734;2023-05-08T07:44:51;101758.38;;;15.20;100.00
48790;BME280;41718;51.980;5.734;2023-05-08T07:49:55;101777.59;;;15.28;100.00
48790;BME280;41718;51.980;5.734;2023-05-08T07:54:57;101771.81;;;15.58;100.00
48790;BME280;41718;51.980;5.734;2023-05-08T08:00:00;101766.53;;;15.53;100.00
48790;BME280;41718;51.980;5.734;2023-05-08T08:05:03;101764.34;;;15.96;100.00
48790;BME280;41718;51.980;5.734;2023-05-08T08:10:06;101755.53;;;15.82;100.00
48790;BME280;41718;51.980;5.734;2023-05-08T08:15:08;101737.28;;;15.85;100.00
48790;BME280;41718;51.980;5.734;2023-05-08T08:20:13;101734.53;;;15.68;100.00
48790;BME280;41718;51.980;5.734;2023-05-08T08:25:14;101714.59;;;15.75;100.00
48790;BME280;41718;51.980;5.734;2023-05-08T08:30:16;101717.31;;;15.88;100.00
48790;BME280;41718;51.980;5.734;2023-05-08T08:35:20;101710.50;;;16.13;100.00
48790;BME280;41718;51.980;5.734;2023-05-08T08:40:26;101692.56;;;16.81;100.00
48790;BME280;41718;51.980;5.734;2023-05-08T08:45:29;101691.75;;;17.15;100.00
48790;BME280;41718;51.980;5.734;2023-05-08T08:50:32;101677.81;;;17.39;100.00
48790;BME280;41718;51.980;5.734;2023-05-08T08:55:36;101684.75;;;16.96;100.00
48790;BME280;41718;51.980;5.734;2023-05-08T09:00:40;101693.47;;;17.00;100.00
48790;BME280;41718;51.980;5.734;2023-05-08T09:05:42;101689.16;;;17.31;100.00
48790;BME280;41718;51.980;5.734;2023-05-08T09:10:45;101688.28;;;17.59;100.00
48790;BME280;41718;51.980;5.734;2023-05-08T09:15:47;101681.22;;;18.27;100.00
48790;BME280;41718;51.980;5.734;2023-05-08T09:20:50;101689.53;;;19.10;100.00
48790;BME280;41718;51.980;5.734;2023-05-08T09:25:53;101685.41;;;18.69;100.00
48790;BME280;41718;51.980;5.734;2023-05-08T09:30:55;101682.19;;;17.89;100.00
48790;BME280;41718;51.980;5.734;2023-05-08T09:35:58;101684.41;;;18.93;100.00
48790;BME280;41718;51.980;5.734;2023-05-08T09:41:13;101698.34;;;19.03;100.00
48790;BME280;41718;51.980;5.734;2023-05-08T09:46:24;101705.59;;;18.43;100.00
48790;BME280;41718;51.980;5.734;2023-05-08T09:51:29;101705.50;;;18.75;100.00
48790;BME280;41718;51.980;5.734;2023-05-08T09:56:35;101702.94;;;18.55;100.00
48790;BME280;41718;51.980;5.734;2023-05-08T10:01:37;101712.66;;;18.27;100.00
48790;BME280;41718;51.980;5.734;2023-05-08T10:06:40;101715.28;;;18.15;100.00
48790;BME280;41718;51.980;5.734;2023-05-08T10:11:48;101714.22;;;18.75;100.00
48790;BME280;41718;51.980;5.734;2023-05-08T10:16:53;101717.03;;;18.17;100.00
48790;BME280;41718;51.980;5.734;2023-05-08T10:21:56;101710.59;;;19.02;100.00
48790;BME280;41718;51.980;5.734;2023-05-08T10:27:19;101712.28;;;19.13;100.00
48790;BME280;41718;51.980;5.734;2023-05-08T10:32:31;101706.53;;;18.28;100.00
48790;BME280;41718;51.980;5.734;2023-05-08T10:37:36;101706.38;;;18.74;100.00
48790;BME280;41718;51.980;5.734;2023-05-08T10:42:38;101705.41;;;18.87;100.00
48790;BME280;41718;51.980;5.734;2023-05-08T10:47:56;101707.84;;;19.19;100.00
48790;BME280;41718;51.980;5.734;2023-05-08T10:53:02;101694.97;;;20.73;100.00
48790;BME280;41718;51.980;5.734;2023-05-08T10:58:14;101701.03;;;20.01;100.00
48790;BME280;41718;51.980;5.734;2023-05-08T11:03:29;101699.41;;;20.68;100.00
48790;BME280;41718;51.980;5.734;2023-05-08T11:08:42;101697.53;;;20.78;100.00
48790;BME280;41718;51.980;5.734;2023-05-08T11:13:51;101701.44;;;20.45;100.00
48790;BME280;41718;51.980;5.734;2023-05-08T11:19:18;101691.31;;;20.83;100.00
48790;BME280;41718;51.980;5.734;2023-05-08T11:24:33;101703.44;;;20.95;100.00
48790;BME280;41718;51.980;5.734;2023-05-08T11:29:36;101689.72;;;21.33;100.00
48790;BME280;41718;51.980;5.734;2023-05-08T11:39:44;101682.28;;;20.33;100.00
48790;BME280;41718;51.980;5.734;2023-05-08T11:44:46;101675.94;;;21.16;100.00
48790;BME280;41718;51.980;5.734;2023-05-08T11:49:47;101676.63;;;21.27;100.00
48790;BME280;41718;51.980;5.734;2023-05-08T11:54:49;101681.75;;;21.36;100.00
48790;BME280;41718;51.980;5.734;2023-05-08T11:59:50;101682.72;;;21.31;100.00
48790;BME280;41718;51.980;5.734;2023-05-08T12:04:52;101679.56;;;21.07;100.00
48790;BME280;41718;51.980;5.734;2023-05-08T12:09:54;101681.91;;;20.64;100.00
48790;BME280;41718;51.980;5.734;2023-05-08T12:14:56;101691.38;;;20.79;100.00
48790;BME280;41718;51.980;5.734;2023-05-08T12:20:08;101693.53;;;21.09;100.00
48790;BME280;41718;51.980;5.734;2023-05-08T12:25:10;101691.34;;;20.80;100.00
48790;BME280;41718;51.980;5.734;2023-05-08T12:30:15;101687.81;;;20.83;100.00
48790;BME280;41718;51.980;5.734;2023-05-08T12:35:17;101689.28;;;20.34;100.00
48790;BME280;41718;51.980;5.734;2023-05-08T12:40:25;101683.38;;;20.88;100.00
48790;BME280;41718;51.980;5.734;2023-05-08T12:45:29;101675.75;;;20.67;100.00
48790;BME280;41718;51.980;5.734;2023-05-08T12:50:36;101673.63;;;20.95;100.00
48790;BME280;41718;51.980;5.734;2023-05-08T12:55:39;101668.56;;;21.38;100.00
48790;BME280;41718;51.980;5.734;2023-05-08T13:00:49;101665.22;;;21.25;100.00
48790;BME280;41718;51.980;5.734;2023-05-08T13:05:54;101653.53;;;21.46;100.00
48790;BME280;41718;51.980;5.734;2023-05-08T13:10:56;101653.38;;;20.98;100.00
48790;BME280;41718;51.980;5.734;2023-05-08T13:16:01;101646.06;;;21.17;100.00
48790;BME280;41718;51.980;5.734;2023-05-08T13:21:03;101649.25;;;21.37;100.00
48790;BME280;41718;51.980;5.734;2023-05-08T13:26:05;101633.66;;;21.76;100.00
48790;BME280;41718;51.980;5.734;2023-05-08T13:31:07;101631.47;;;21.52;100.00
48790;BME280;41718;51.980;5.734;2023-05-08T13:36:08;101641.81;;;21.62;100.00
48790;BME280;41718;51.980;5.734;2023-05-08T13:41:10;101639.53;;;21.90;100.00
48790;BME280;41718;51.980;5.734;2023-05-08T13:46:11;101633.88;;;21.10;100.00
48790;BME280;41718;51.980;5.734;2023-05-08T13:51:13;101634.50;;;21.26;100.00
48790;BME280;41718;51.980;5.734;2023-05-08T13:56:14;101630.97;;;21.79;100.00
48790;BME280;41718;51.980;5.734;2023-05-08T14:01:16;101631.69;;;21.39;100.00
48790;BME280;41718;51.980;5.734;2023-05-08T14:06:28;101625.94;;;22.12;100.00
48790;BME280;41718;51.980;5.734;2023-05-08T14:11:29;101626.53;;;21.33;100.00
48790;BME280;41718;51.980;5.734;2023-05-08T14:16:31;101617.28;;;21.59;100.00
48790;BME280;41718;51.980;5.734;2023-05-08T14:21:33;101617.38;;;21.02;100.00
48790;BME280;41718;51.980;5.734;2023-05-08T14:26:35;101617.59;;;20.86;100.00
48790;BME280;41718;51.980;5.734;2023-05-08T14:31:36;101608.19;;;21.26;100.00
48790;BME280;41718;51.980;5.734;2023-05-08T14:36:38;101611.50;;;21.40;100.00
48790;BME280;41718;51.980;5.734;2023-05-08T14:41:39;101610.81;;;21.26;100.00
48790;BME280;41718;51.980;5.734;2023-05-08T14:46:41;101606.38;;;21.31;100.00
48790;BME280;41718;51.980;5.734;2023-05-08T14:51:42;101611.78;;;21.71;100.00
48790;BME280;41718;51.980;5.734;2023-05-08T14:56:44;101609.06;;;21.28;100.00
48790;BME280;41718;51.980;5.734;2023-05-08T15:01:48;101603.56;;;21.88;100.00
48790;BME280;41718;51.980;5.734;2023-05-08T15:06:49;101602.66;;;21.90;100.00
48790;BME280;41718;51.980;5.734;2023-05-08T15:11:51;101625.81;;;21.21;100.00
48790;BME280;41718;51.980;5.734;2023-05-08T15:16:53;101631.47;;;21.52;100.00
48790;BME280;41718;51.980;5.734;2023-05-08T15:21:54;101629.19;;;21.80;100.00
48790;BME280;41718;51.980;5.734;2023-05-08T15:26:55;101629.81;;;20.90;100.00
48790;BME280;41718;51.980;5.734;2023-05-08T15:31:57;101633.03;;;21.09;100.00
48790;BME280;41718;51.980;5.734;2023-05-08T15:36:59;101626.00;;;21.11;100.00
48790;BME280;41718;51.980;5.734;2023-05-08T15:42:00;101620.72;;;21.10;100.00
48790;BME280;41718;51.980;5.734;2023-05-08T15:47:02;101616.72;;;20.86;100.00
48790;BME280;41718;51.980;5.734;2023-05-08T15:52:03;101612.34;;;20.86;100.00
48790;BME280;41718;51.980;5.734;2023-05-08T15:57:05;101620.56;;;21.22;100.00
48790;BME280;41718;51.980;5.734;2023-05-08T16:02:07;101628.34;;;21.27;100.00
48790;BME280;41718;51.980;5.734;2023-05-08T16:07:08;101641.06;;;20.37;100.00
48790;BME280;41718;51.980;5.734;2023-05-08T16:12:10;101641.50;;;20.70;100.00
48790;BME280;41718;51.980;5.734;2023-05-08T16:17:11;101634.59;;;20.64;100.00
48790;BME280;41718;51.980;5.734;2023-05-08T16:22:13;101635.47;;;20.63;100.00
48790;BME280;41718;51.980;5.734;2023-05-08T16:27:14;101642.16;;;20.19;100.00
48790;BME280;41718;51.980;5.734;2023-05-08T16:32:16;101628.88;;;20.30;100.00
48790;BME280;41718;51.980;5.734;2023-05-08T16:37:17;101625.38;;;20.31;100.00
48790;BME280;41718;51.980;5.734;2023-05-08T16:42:19;101627.28;;;20.18;100.00
48790;BME280;41718;51.980;5.734;2023-05-08T16:47:21;101610.69;;;20.13;100.00
48790;BME280;41718;51.980;5.734;2023-05-08T16:52:22;101600.44;;;19.93;100.00
48790;BME280;41718;51.980;5.734;2023-05-08T16:57:24;101594.50;;;19.76;100.00
48790;BME280;41718;51.980;5.734;2023-05-08T17:02:26;101592.66;;;19.84;100.00
48790;BME280;41718;51.980;5.734;2023-05-08T17:07:27;101607.81;;;19.57;100.00
48790;BME280;41718;51.980;5.734;2023-05-08T17:12:29;101583.53;;;19.32;100.00
48790;BME280;41718;51.980;5.734;2023-05-08T17:17:30;101588.53;;;19.60;100.00
48790;BME280;41718;51.980;5.734;2023-05-08T17:22:32;101586.94;;;19.42;100.00
48790;BME280;41718;51.980;5.734;2023-05-08T17:27:33;101588.63;;;19.49;100.00
48790;BME280;41718;51.980;5.734;2023-05-08T17:32:36;101592.22;;;19.38;100.00
48790;BME280;41718;51.980;5.734;2023-05-08T17:37:38;101599.25;;;19.34;100.00
48790;BME280;41718;51.980;5.734;2023-05-08T17:42:39;101611.56;;;19.27;100.00
48790;BME280;41718;51.980;5.734;2023-05-08T17:47:41;101609.97;;;19.13;100.00
48790;BME280;41718;51.980;5.734;2023-05-08T17:52:42;101615.31;;;19.00;100.00
48790;BME280;41718;51.980;5.734;2023-05-08T17:57:44;101616.16;;;18.99;100.00
48790;BME280;41718;51.980;5.734;2023-05-08T18:02:45;101624.09;;;18.92;100.00
48790;BME280;41718;51.980;5.734;2023-05-08T18:07:47;101612.66;;;19.03;100.00
48790;BME280;41718;51.980;5.734;2023-05-08T18:12:49;101611.97;;;18.75;100.00
48790;BME280;41718;51.980;5.734;2023-05-08T18:17:50;101621.66;;;18.61;100.00
48790;BME280;41718;51.980;5.734;2023-05-08T18:22:53;101612.03;;;18.63;100.00
48790;BME280;41718;51.980;5.734;2023-05-08T18:27:55;101611.22;;;18.55;100.00
48790;BME280;41718;51.980;5.734;2023-05-08T18:32:59;101607.78;;;18.44;100.00
48790;BME280;41718;51.980;5.734;2023-05-08T18:38:00;101599.94;;;18.35;100.00
48790;BME280;41718;51.980;5.734;2023-05-08T18:43:02;101598.16;;;18.43;100.00
48790;BME280;41718;51.980;5.734;2023-05-08T18:48:07;101598.22;;;18.29;100.00
48790;BME280;41718;51.980;5.734;2023-05-08T18:53:09;101591.34;;;18.10;100.00
48790;BME280;41718;51.980;5.734;2023-05-08T18:58:17;101592.22;;;17.98;100.00
48790;BME280;41718;51.980;5.734;2023-05-08T19:03:22;101597.47;;;17.98;100.00
48790;BME280;41718;51.980;5.734;2023-05-08T19:08:23;101596.69;;;17.58;100.00
48790;BME280;41718;51.980;5.734;2023-05-08T19:13:26;101583.63;;;17.52;100.00
48790;BME280;41718;51.980;5.734;2023-05-08T19:18:30;101574.03;;;17.54;100.00
48790;BME280;41718;51.980;5.734;2023-05-08T19:23:33;101569.69;;;17.40;100.00
48790;BME280;41718;51.980;5.734;2023-05-08T19:40:29;101582.78;;;16.76;100.00
48790;BME280;41718;51.980;5.734;2023-05-08T19:45:35;101574.09;;;16.86;100.00
48790;BME280;41718;51.980;5.734;2023-05-08T19:50:38;101573.19;;;16.72;100.00
48790;BME280;41718;51.980;5.734;2023-05-08T19:55:41;101574.84;;;16.50;100.00
48790;BME280;41718;51.980;5.734;2023-05-08T20:00:43;101578.31;;;16.40;100.00
48790;BME280;41718;51.980;5.734;2023-05-08T20:05:51;101582.63;;;16.24;100.00
48790;BME280;41718;51.980;5.734;2023-05-08T20:10:53;101577.38;;;16.12;100.00
48790;BME280;41718;51.980;5.734;2023-05-08T20:15:57;101579.03;;;15.98;100.00
48790;BME280;41718;51.980;5.734;2023-05-08T20:20:58;101573.78;;;15.92;100.00
48790;BME280;41718;51.980;5.734;2023-05-08T20:26:00;101567.66;;;15.85;100.00
48790;BME280;41718;51.980;5.734;2023-05-08T20:31:02;101567.66;;;15.86;100.00
48790;BME280;41718;51.980;5.734;2023-05-08T20:36:04;101564.09;;;15.68;100.00
48790;BME280;41718;51.980;5.734;2023-05-08T20:41:08;101568.44;;;15.66;100.00
48790;BME280;41718;51.980;5.734;2023-05-08T20:46:10;101571.84;;;15.58;100.00
48790;BME280;41718;51.980;5.734;2023-05-08T20:51:17;101570.03;;;15.45;100.00
48790;BME280;41718;51.980;5.734;2023-05-08T20:56:27;101573.53;;;15.49;100.00
48790;BME280;41718;51.980;5.734;2023-05-08T21:01:29;101567.41;;;15.47;100.00
48790;BME280;41718;51.980;5.734;2023-05-08T21:06:34;101567.41;;;15.47;100.00
48790;BME280;41718;51.980;5.734;2023-05-08T21:11:40;101568.31;;;15.50;100.00
48790;BME280;41718;51.980;5.734;2023-05-08T21:16:43;101566.50;;;15.38;100.00
48790;BME280;41718;51.980;5.734;2023-05-08T21:21:46;101560.31;;;15.23;100.00
48790;BME280;41718;51.980;5.734;2023-05-08T21:26:48;101547.28;;;15.24;100.00
48790;BME280;41718;51.980;5.734;2023-05-08T21:31:49;101543.75;;;15.19;100.00
48790;BME280;41718;51.980;5.734;2023-05-08T21:36:51;101538.47;;;15.07;100.00
48790;BME280;41718;51.980;5.734;2023-05-08T21:41:53;101536.69;;;15.01;100.00
48790;BME280;41718;51.980;5.734;2023-05-08T21:47:00;101532.38;;;15.03;100.00
48790;BME280;41718;51.980;5.734;2023-05-08T21:52:06;101519.28;;;14.97;100.00
48790;BME280;41718;51.980;5.734;2023-05-08T21:57:07;101522.69;;;14.87;100.00
48790;BME280;41718;51.980;5.734;2023-05-08T22:02:09;101521.69;;;14.71;100.00
48790;BME280;41718;51.980;5.734;2023-05-08T22:07:11;101512.22;;;14.81;100.00
48790;BME280;41718;51.980;5.734;2023-05-08T22:12:12;101514.88;;;14.87;100.00
48790;BME280;41718;51.980;5.734;2023-05-08T22:17:14;101507.06;;;14.87;100.00
48790;BME280;41718;51.980;5.734;2023-05-08T22:22:16;101498.38;;;14.91;100.00
48790;BME280;41718;51.980;5.734;2023-05-08T22:27:18;101489.69;;;14.89;100.00
48790;BME280;41718;51.980;5.734;2023-05-08T22:32:20;101480.09;;;14.83;100.00
48790;BME280;41718;51.980;5.734;2023-05-08T22:37:21;101473.97;;;14.75;100.00
48790;BME280;41718;51.980;5.734;2023-05-08T22:42:23;101463.47;;;14.68;100.00
48790;BME280;41718;51.980;5.734;2023-05-08T22:47:25;101468.69;;;14.68;100.00
48790;BME280;41718;51.980;5.734;2023-05-08T22:52:28;101460.94;;;14.77;100.00
48790;BME280;41718;51.980;5.734;2023-05-08T22:57:31;101453.09;;;14.69;100.00
48790;BME280;41718;51.980;5.734;2023-05-08T23:02:33;101430.47;;;14.68;100.00
48790;BME280;41718;51.980;5.734;2023-05-08T23:07:35;101435.69;;;14.68;100.00
48790;BME280;41718;51.980;5.734;2023-05-08T23:12:37;101414.81;;;14.61;100.00
48790;BME280;41718;51.980;5.734;2023-05-08T23:17:39;101400.84;;;14.51;100.00
48790;BME280;41718;51.980;5.734;2023-05-08T23:22:40;101385.25;;;14.52;100.00
48790;BME280;41718;51.980;5.734;2023-05-08T23:27:42;101392.09;;;14.46;100.00
48790;BME280;41718;51.980;5.734;2023-05-08T23:32:44;101403.31;;;14.40;100.00
48790;BME280;41718;51.980;5.734;2023-05-08T23:37:46;101398.09;;;14.37;100.00
48790;BME280;41718;51.980;5.734;2023-05-08T23:42:48;101391.13;;;14.33;100.00
48790;BME280;41718;51.980;5.734;2023-05-08T23:47:54;101389.28;;;14.23;100.00
48790;BME280;41718;51.980;5.734;2023-05-08T23:52:55;101385.03;;;14.31;100.00
48790;BME280;41718;51.980;5.734;2023-05-08T23:57:57;101391.94;;;14.24;100.00
